Flight Track Log - Related Links

Times and Time Zones

All times are in EDT time to prevent confusion due to time zone crossing. See the N92PK flight status page for this flight to view local times or setup timezone preferences in your user account.

Time Position Orientation Groundspeed Altitude Reporting Facility
EDT Latitude Longitude Course Direction KTS MPH feet Rate Location/Type
Sun 10:01:03 AM 27.1681 -80.1931 281° West 113 130 800  Level Miami Center
Sun 10:02:03 AM 27.1564 -80.1575 110° East 118 136 1,700 900 Climbing Miami Center
Sun 10:03:03 AM 27.1403 -80.1292 123° Southeast 125 144 2,600 1,000 Climbing Miami Center
Sun 10:04:03 AM 27.1106 -80.1539 217° Southwest 142 163 3,700 1,050 Climbing Miami Center
Sun 10:05:03 AM 27.0867 -80.1883 232° Southwest 153 176 4,700 650 Climbing Miami Center
Sun 10:06:00 AM 27.2572 -80.4601 281° West  Level FlightAware Approximate
Sun 10:06:03 AM 27.0919 -80.2350 277° West 162 186 5,000  Level Miami Center
Sun 10:07:03 AM 27.1117 -80.2822 295° West 176 203 5,000 297 Level Miami Center
Sun 10:12:27 AM 27.2380 -80.5440 295° West 167 192 6,900 372 Climbing FlightAware ADS-B
Sun 10:12:42 AM 27.2440 -80.5550 302° West 169 194 7,100 600 Climbing FlightAware ADS-B
Sun 10:13:07 AM 27.2520 -80.5710 299° West 172 198 7,300 764 Climbing FlightAware ADS-B
Sun 10:13:37 AM 27.2650 -80.5950 301° West 171 197 7,800 545 Climbing FlightAware ADS-B
Sun 10:14:02 AM 27.2770 -80.6170 302° West 173 199 7,800  Level FlightAware ADS-B
Sun 10:14:17 AM 27.2830 -80.6290 299° West 182 209 7,800  Level FlightAware ADS-B
Sun 10:14:52 AM 27.2940 -80.6530 297° West 182 209 7,800 113 Level FlightAware ADS-B
Sun 10:16:03 AM 27.3261 -80.7211 297° West 183 211 8,000 92 Climbing Miami Center
Sun 10:17:03 AM 27.3519 -80.7664 303° West 183 211 8,000  Level Miami Center
Sun 10:18:03 AM 27.3778 -80.8211 298° West 183 211 8,000  Level Miami Center
Sun 10:19:03 AM 27.4033 -80.8711 300° West 188 216 8,000  Level Miami Center
Sun 10:20:03 AM 27.4314 -80.9211 302° West 188 216 8,000 -32 Level Miami Center
Sun 10:25:22 AM 27.5700 -81.1920 302° West 182 209 7,800 -33 Descending FlightAware ADS-B
Sun 10:26:12 AM 27.5920 -81.2350 300° West 183 211 7,800  Level FlightAware ADS-B
Sun 10:26:37 AM 27.6020 -81.2540 301° West 182 209 7,800  Level FlightAware ADS-B
Sun 10:27:07 AM 27.6120 -81.2760 297° West 182 209 7,800  Level FlightAware ADS-B
Sun 10:27:32 AM 27.6270 -81.3030 302° West 180 207 7,800  Level FlightAware ADS-B
Sun 10:28:02 AM 27.6390 -81.3270 299° West 180 207 7,800  Level FlightAware ADS-B
Sun 10:28:32 AM 27.6510 -81.3500 301° West 181 208 7,800  Level FlightAware ADS-B
Sun 10:29:02 AM 27.6650 -81.3780 299° West 180 207 7,800  Level FlightAware ADS-B
Sun 10:29:27 AM 27.6760 -81.3990 301° West 181 208 7,800  Level FlightAware ADS-B
Sun 10:29:52 AM 27.6870 -81.4210 299° West 182 209 7,800  Level FlightAware ADS-B
Sun 10:30:27 AM 27.7000 -81.4460 300° West 182 209 7,800  Level FlightAware ADS-B
Sun 10:30:37 AM 27.7050 -81.4580 295° West 182 209 7,800  Level FlightAware ADS-B
Sun 10:31:07 AM 27.7190 -81.4840 301° West 181 208 7,800  Level FlightAware ADS-B
Sun 10:31:22 AM 27.7240 -81.4950 297° West 181 208 7,800  Level FlightAware ADS-B
Sun 10:31:52 AM 27.7380 -81.5220 300° West 182 209 7,800  Level FlightAware ADS-B
Sun 10:32:12 AM 27.7460 -81.5380 299° West 183 211 7,800  Level FlightAware ADS-B
Sun 10:32:32 AM 27.7540 -81.5530 301° West 184 212 7,800  Level FlightAware ADS-B
Sun 10:32:57 AM 27.7660 -81.5770 299° West 185 213 7,800  Level FlightAware ADS-B
Sun 10:33:07 AM 27.7700 -81.5850 299° West 185 213 7,800  Level FlightAware ADS-B
Sun 10:33:42 AM 27.7850 -81.6140 300° West 186 214 7,800  Level FlightAware ADS-B
Sun 10:34:07 AM 27.7960 -81.6370 298° West 187 215 7,800  Level FlightAware ADS-B
Sun 10:34:22 AM 27.8020 -81.6470 304° West 187 215 7,800  Level FlightAware ADS-B
Sun 10:34:47 AM 27.8140 -81.6720 298° West 187 215 7,800  Level FlightAware ADS-B
Sun 10:36:07 AM 27.8460 -81.7350 300° West 192 221 7,800  Level FlightAware ADS-B
Sun 10:38:27 AM 27.9080 -81.8590 300° West 193 222 7,800  Level FlightAware ADS-B
Sun 10:39:12 AM 27.9300 -81.9030 300° West 193 222 7,800  Level FlightAware ADS-B
Sun 10:39:32 AM 27.9390 -81.9200 301° West 193 222 7,800  Level FlightAware ADS-B
Sun 10:40:07 AM 27.9530 -81.9480 300° West 193 222 7,800  Level FlightAware ADS-B
Sun 10:40:27 AM 27.9630 -81.9680 300° West 193 222 7,800  Level FlightAware ADS-B
Sun 10:40:57 AM 27.9770 -81.9970 299° West 193 222 7,800  Level FlightAware ADS-B
Sun 10:41:22 AM 27.9880 -82.0150 305° West 194 223 7,800  Level FlightAware ADS-B
Sun 10:41:37 AM 28.0010 -82.0230 331° Northwest 194 223 7,800  Level FlightAware ADS-B
Sun 10:42:07 AM 28.0250 -82.0380 331° Northwest 194 223 7,800  Level FlightAware ADS-B
Sun 10:42:17 AM 28.0330 -82.0430 331° Northwest 194 223 7,800  Level FlightAware ADS-B
Sun 10:42:47 AM 28.0560 -82.0580 330° Northwest 193 222 7,800  Level FlightAware ADS-B
Sun 10:43:02 AM 28.0660 -82.0660 325° Northwest 193 222 7,800  Level FlightAware ADS-B
Sun 10:43:12 AM 28.0720 -82.0740 310° West 192 221 7,800  Level FlightAware ADS-B
Sun 10:43:42 AM 28.0910 -82.0980 312° West 191 220 7,800  Level FlightAware ADS-B
Sun 10:44:12 AM 28.1090 -82.1200 313° West 192 221 7,800  Level FlightAware ADS-B
Sun 10:44:37 AM 28.1240 -82.1380 313° West 193 222 7,800  Level FlightAware ADS-B
Sun 10:45:07 AM 28.1420 -82.1600 313° West 193 222 7,800  Level FlightAware ADS-B
Sun 10:45:22 AM 28.1510 -82.1720 310° West 193 222 7,800  Level FlightAware ADS-B
Sun 10:45:32 AM 28.1580 -82.1790 319° Northwest 194 223 7,800  Level FlightAware ADS-B
Sun 10:45:47 AM 28.1710 -82.1830 345° North 194 223 7,800  Level FlightAware ADS-B
Sun 10:46:17 AM 28.1960 -82.1920 342° North 194 223 7,800  Level FlightAware ADS-B
Sun 10:46:47 AM 28.2220 -82.2010 343° North 193 222 7,800  Level FlightAware ADS-B
Sun 10:47:12 AM 28.2450 -82.2080 345° North 193 222 7,800  Level FlightAware ADS-B
Sun 10:47:42 AM 28.2700 -82.2170 342° North 191 220 7,800  Level FlightAware ADS-B
Sun 10:47:57 AM 28.2820 -82.2210 344° North 190 219 7,800  Level FlightAware ADS-B
Sun 10:48:22 AM 28.3040 -82.2290 342° North 191 220 7,800  Level FlightAware ADS-B
Sun 10:48:52 AM 28.3290 -82.2380 342° North 190 219 7,800  Level FlightAware ADS-B
Sun 10:49:02 AM 28.3380 -82.2410 344° North 190 219 7,800  Level FlightAware ADS-B
Sun 10:49:32 AM 28.3630 -82.2500 342° North 190 219 7,800  Level FlightAware ADS-B
Sun 10:50:02 AM 28.3860 -82.2640 332° Northwest 190 219 7,800  Level FlightAware ADS-B
Sun 10:50:27 AM 28.4040 -82.2760 330° Northwest 189 217 7,800  Level FlightAware ADS-B
Sun 10:50:57 AM 28.4280 -82.2910 331° Northwest 188 216 7,800  Level FlightAware ADS-B
Sun 10:51:22 AM 28.4470 -82.3030 331° Northwest 190 219 7,800  Level FlightAware ADS-B
Sun 10:51:52 AM 28.4700 -82.3180 330° Northwest 189 217 7,800  Level FlightAware ADS-B
Sun 10:52:22 AM 28.4930 -82.3330 330° Northwest 189 217 7,800  Level FlightAware ADS-B
Sun 10:52:32 AM 28.5010 -82.3380 331° Northwest 189 217 7,800  Level FlightAware ADS-B
Sun 10:53:02 AM 28.5230 -82.3520 331° Northwest 189 217 7,800  Level FlightAware ADS-B
Sun 10:53:32 AM 28.5450 -82.3660 331° Northwest 190 219 7,800  Level FlightAware ADS-B
Sun 10:54:12 AM 28.5770 -82.3870 330° Northwest 190 219 7,800  Level FlightAware ADS-B
Sun 10:54:37 AM 28.5960 -82.3980 333° Northwest 190 219 7,800  Level FlightAware ADS-B
Sun 10:55:07 AM 28.6190 -82.4130 330° Northwest 191 220 7,800  Level FlightAware ADS-B
Sun 10:55:37 AM 28.6400 -82.4270 330° Northwest 190 219 7,800  Level FlightAware ADS-B
Sun 10:57:27 AM 28.7250 -82.4810 331° Northwest 7,800  Level FlightAware ADS-B
Sun 10:59:22 AM 28.8160 -82.5400 330° Northwest 186 214 7,800  Level FlightAware ADS-B
Sun 10:59:47 AM 28.8350 -82.5520 331° Northwest 186 214 7,800  Level FlightAware ADS-B
Sun 11:00:17 AM 28.8580 -82.5670 330° Northwest 186 214 7,800  Level FlightAware ADS-B
Sun 11:00:47 AM 28.8800 -82.5810 331° Northwest 187 215 7,800  Level FlightAware ADS-B
Sun 11:01:12 AM 28.8980 -82.5940 328° Northwest 187 215 7,800  Level FlightAware ADS-B
Sun 11:03:32 AM 29.0100 -82.6650 331° Northwest 7,800  Level FlightAware ADS-B
Sun 11:04:02 AM 29.0340 -82.6810 330° Northwest 186 214 7,800  Level FlightAware ADS-B
Sun 11:04:27 AM 29.0510 -82.6910 333° Northwest 186 214 7,800  Level FlightAware ADS-B
Sun 11:04:42 AM 29.0650 -82.7010 328° Northwest 186 214 7,800  Level FlightAware ADS-B
Sun 11:05:07 AM 29.0840 -82.7130 331° Northwest 185 213 7,800  Level FlightAware ADS-B
Sun 11:05:42 AM 29.1090 -82.7300 329° Northwest 185 213 7,800 114 Level FlightAware ADS-B
Sun 11:06:52 AM 29.1664 -82.7667 329° Northwest 192 221 8,000 92 Climbing Jacksonville Center
Sun 11:07:52 AM 29.2122 -82.7975 330° Northwest 192 221 8,000  Level Jacksonville Center
Sun 11:08:52 AM 29.2581 -82.8283 330° Northwest 192 221 8,000  Level Jacksonville Center
Sun 11:09:52 AM 29.3042 -82.8569 332° Northwest 187 215 8,000  Level Jacksonville Center
Sun 11:10:52 AM 29.3500 -82.8878 330° Northwest 192 221 8,000  Level Jacksonville Center
Sun 11:11:52 AM 29.3981 -82.9189 331° Northwest 192 221 8,000  Level Jacksonville Center
Sun 11:12:52 AM 29.4439 -82.9475 331° Northwest 192 221 8,000  Level Jacksonville Center
Sun 11:13:52 AM 29.4897 -82.9783 330° Northwest 192 221 8,000  Level Jacksonville Center
Sun 11:14:52 AM 29.5378 -83.0094 331° Northwest 192 221 8,000  Level Jacksonville Center
Sun 11:15:52 AM 29.5836 -83.0406 329° Northwest 192 221 8,000  Level Jacksonville Center
Sun 11:16:52 AM 29.6317 -83.0694 332° Northwest 192 221 8,000  Level Jacksonville Center
Sun 11:17:52 AM 29.6797 -83.0981 333° Northwest 192 221 8,000  Level Jacksonville Center
Sun 11:18:52 AM 29.7297 -83.1294 331° Northwest 192 221 8,000  Level Jacksonville Center
Sun 11:19:52 AM 29.7736 -83.1511 337° Northwest 192 221 8,000  Level Jacksonville Center
Sun 11:20:52 AM 29.8214 -83.1775 334° Northwest 192 221 8,000  Level Jacksonville Center
Sun 11:21:52 AM 29.8694 -83.2064 332° Northwest 192 221 8,000  Level Jacksonville Center
Sun 11:22:52 AM 29.9194 -83.2353 333° Northwest 192 221 8,000  Level Jacksonville Center
Sun 11:23:52 AM 29.9675 -83.2642 332° Northwest 197 227 8,000  Level Jacksonville Center
Sun 11:24:52 AM 30.0153 -83.2931 332° Northwest 197 227 8,000  Level Jacksonville Center
Sun 11:25:52 AM 30.0633 -83.3197 334° Northwest 197 227 8,000  Level Jacksonville Center
Sun 11:26:52 AM 30.1133 -83.3489 333° Northwest 197 227 8,000  Level Jacksonville Center
Sun 11:27:52 AM 30.1592 -83.3756 333° Northwest 197 227 8,000  Level Jacksonville Center
Sun 11:28:52 AM 30.2092 -83.4044 333° Northwest 197 227 8,000  Level Jacksonville Center
Sun 11:29:52 AM 30.2569 -83.4314 334° Northwest 197 227 8,000  Level Jacksonville Center
Sun 11:30:52 AM 30.3028 -83.4603 331° Northwest 192 221 8,000  Level Jacksonville Center
Sun 11:31:52 AM 30.3528 -83.4872 335° Northwest 192 221 8,000  Level Jacksonville Center
Sun 11:32:51 AM 30.4006 -83.5189 330° Northwest 189 217 8,000  Level Jacksonville Center
Sun 11:33:46 AM 30.4403 -83.5431 332° Northwest 188 216 8,000  Level Jacksonville Center
Sun 11:34:47 AM 30.4881 -83.5725 332° Northwest 187 215 8,000  Level Jacksonville Center
Sun 11:35:47 AM 30.5339 -83.5969 335° Northwest 184 212 8,000  Level Jacksonville Center
Sun 11:35:52 AM 30.5339 -83.5969 335° Northwest 181 208 8,000  Level Jacksonville Center
Sun 11:36:48 AM 30.5817 -83.6261 332° Northwest 186 214 8,000  Level Jacksonville Center
Sun 11:37:48 AM 30.6256 -83.6531 332° Northwest 187 215 8,000  Level Jacksonville Center
Sun 11:38:49 AM 30.6733 -83.6825 332° Northwest 187 215 8,000  Level Jacksonville Center
Sun 11:39:50 AM 30.7211 -83.7094 334° Northwest 187 215 8,000  Level Jacksonville Center
Sun 11:40:50 AM 30.7689 -83.7389 332° Northwest 188 216 8,000  Level Jacksonville Center
Sun 11:41:51 AM 30.8169 -83.7658 334° Northwest 188 216 8,000  Level Jacksonville Center
Sun 11:42:52 AM 30.8606 -83.7953 330° Northwest 187 215 8,000 -198 Level Jacksonville Center
Sun 11:43:52 AM 30.9125 -83.8225 336° Northwest 190 219 7,600 -545 Descending Jacksonville Center
Sun 11:44:53 AM 30.9581 -83.8519 331° Northwest 191 220 6,900 -636 Descending Jacksonville Center
Sun 11:46:04 AM 31.0103 -83.8767 338° Northwest 195 224 6,200 -641 Descending Jacksonville Center
Sun 11:47:04 AM 31.0558 -83.9064 331° Northwest 195 224 5,500 -700 Descending Jacksonville Center
Sun 11:48:04 AM 31.0994 -83.9311 334° Northwest 184 212 4,800 -700 Descending Jacksonville Center
Sun 11:49:04 AM 31.1453 -83.9606 331° Northwest 184 212 4,100 -700 Descending Jacksonville Center
Sun 11:50:04 AM 31.1972 -83.9733 348° North 179 206 3,400 -700 Descending Jacksonville Center
Sun 11:51:04 AM 31.2517 -83.9814 353° North 179 206 2,700 -450 Descending Jacksonville Center
Sun 11:52:04 AM 31.3036 -83.9844 357° North 184 212 2,500 -100 Descending Jacksonville Center
Sun 11:53:04 AM 31.3475 -83.9897 354° North 173 199 2,500  Level Jacksonville Center
Sun 11:54:04 AM 31.3914 -83.9950 354° North 162 186 2,500 -100 Level Jacksonville Center
Sun 11:55:04 AM 31.4372 -84.0006 354° North 162 186 2,300 -100 Descending Jacksonville Center
Sun 11:56:04 AM 31.4789 -84.0033 357° North 162 186 2,300  Level Jacksonville Center
Sun 11:57:04 AM 31.5164 -84.0089 353° North 156 180 2,300  Level Jacksonville Center
Sun 11:58:04 AM 31.5583 -84.0117 357° North 151 174 2,300  Level Jacksonville Center
Sun 11:59:04 AM 31.5958 -84.0047 North 140 161 2,300  Level Jacksonville Center
Sun 12:00:04 PM 31.6314 -83.9881 22° Northeast 140 161 2,300 -50 Level Jacksonville Center
Sun 12:01:04 PM 31.6692 -83.9814 North 140 161 2,200 -150 Descending Jacksonville Center
Sun 12:02:04 PM 31.6875 -84.0206 299° West 110 127 2,000 -100 Descending Jacksonville Center
Sun 12:03:04 PM 31.6686 -84.0519 235° Southwest 90 104 2,000  Level Jacksonville Center
Sun 12:04:04 PM 31.6433 -84.0761 219° Southwest 90 104 2,000  Level Jacksonville Center
Sun 12:05:04 PM 31.6200 -84.1028 224° Southwest 116 133 2,000 -200 Level Jacksonville Center
Sun 12:06:04 PM 31.5967 -84.1292 224° Southwest 122 140 1,600 -450 Descending Jacksonville Center
Sun 12:07:04 PM 31.5758 -84.1483 218° Southwest 116 133 1,100 -500 Descending Jacksonville Center
Sun 12:08:04 PM 31.5547 -84.1725 224° Southwest 116 133 600 -500 Descending Jacksonville Center

Login

Don't have an account? Register now (free) for customized features, flight alerts, and more!